Airfield :
LOGIN :

Register | Disclaimer

   EN    FR    IT 

 










Legend :    VFR   Marginal VFR   IFR   Intensive IFR   Very Intensive IFR
Visi :
Ceiling :
>= 8 km
>= 3000ft
5 to 8 km
1000 to 3000 ft
1500m to 5 km
500 to 1000 ft
800 to 1500m
200 to 500 ft
< 800m
< 200 ft
Symbols :   Thunderstorms  Fog  Heavy snow  Heavy precipitations  Wind > 20 kt
SIGMETs :     Misc.  Thunderstorms  Icing  Turbulence  Mountain Waves  Volcanic Ashes






- Airport Elevation : 1822 ft


ETSL - Lechfeld AB

CURRENT METAR :
  • 191720Z 24006KT 9999 SCT025 SCT040 02/M01 Q1023 BLU+

EXPIRED METARs :
  • 191620Z 26008KT 9999 VCSH FEW025CB 03/M01 Q1023 RESHSN BLU+
  • 191613Z 25008KT 8000 VCSH FEW015 SCT025CB 03/M00 Q1023 RESHSN BLU+
  • 191600Z 29010G30KT 2000 SHSN FEW015 BKN025CB BKN040 02/M01 Q1023 YLO FCST CANCEL
  • 191520Z 28008KT 9999 VCSH FEW010 SCT020CB 04/M01 Q1022 BLU+BLU+ TEMPO YLO
  • 191436Z 29009KT 9999 -SHRA SCT020CB SCT040 03/M01 Q1022 BLU+BLU+ TEMPO YLO

TAF AMD TAF ETSL
Valid from the 19 at 15:00 until the 20 at 00:00 UTC


191545Z 1915/1924 23015G25KT 9999 NSW SCT030
TEMPO 1915/1916 24015G35KT 2000 SHSNRA BKN006 BKN015CB CANCEL 1600 BY ETGL



MET'MAP, your aeronautical weather chart ! - Copyright ORBIFLY December 2007 - Disclaimer

ORBIFLY MET'MAP TEAM :

Programming & Development : Alexandra Zaïnal
Concept & original design : Baudouin d'Aumeries
Assistance for programming : Marc-Olivier Méhu
Technical & hardware support : Manuel Goepfert

Contact : metmap@orbifly.com




SOURCES & CREDITS :

   NOAA